EHVL

Vlieland Heliport

Vlieland, The Netherlands
METAR EHVL 170755Z AUTO 30010KT 9999 NCD 06/02 Q1020 BLU
Observed Flight Rules
Dec-17 @ 07:55 UTC (16 minutes ago) Visual Flight Rules
Wind Visibility Clouds
300° at 10 knots 10,000+ meters
  • Clear skies
Temperatures Readings
Current 6°C / 43°F
Dewpoint 2°C / 36°F
Humidity 76%
Altimeter 30.12" Hg
Pressure 1020 hPa
Elevation 5
METAR EHVL 170755Z AUTO 30010KT 9999 NCD 06/02 Q1020 BLU
Observed Flight Rules
Dec-17 @ 07:55 UTC
(16 minutes ago)
VFR
Wind Visibility
300° at 10 knots 10,000+ meters
Clouds
  • Clear skies
Temperature Dewpoint
6°C / 43°F 2°C / 36°F
Humidity Altimeter Pressure
76% 30.12" Hg 1020 hPa